createdAt,value
2022-07-27T00:01:40.039Z,5.00
2022-07-27T00:04:10.523Z,2.80
2022-07-27T00:06:37.054Z,2.30
2022-07-27T00:09:03.840Z,2.27
2022-07-27T00:11:30.338Z,2.43
2022-07-27T00:13:56.768Z,2.53
2022-07-27T00:16:23.284Z,2.73
2022-07-27T00:18:49.752Z,3.00
2022-07-27T00:21:16.220Z,1.80
2022-07-27T00:23:42.659Z,1.93
2022-07-27T00:26:09.201Z,1.57
2022-07-27T00:28:35.748Z,1.80
2022-07-27T00:31:02.305Z,1.67
2022-07-27T00:33:28.788Z,1.83
2022-07-27T00:35:55.528Z,1.70
2022-07-27T00:38:21.964Z,1.50
2022-07-27T00:40:48.384Z,1.40
2022-07-27T00:43:15.219Z,1.93
2022-07-27T00:45:41.829Z,2.50
2022-07-27T00:48:08.470Z,2.30
2022-07-27T00:50:35.439Z,2.67
2022-07-27T00:53:04.829Z,2.13
2022-07-27T00:55:33.470Z,2.23
2022-07-27T00:58:00.891Z,2.30
2022-07-27T01:00:28.641Z,1.60
2022-07-27T01:02:57.130Z,1.90
2022-07-27T01:05:24.352Z,1.40
2022-07-27T01:08:03.281Z,1.83
2022-07-27T01:10:29.753Z,1.63
2022-07-27T01:12:56.500Z,1.60
2022-07-27T01:15:22.993Z,1.30
2022-07-27T01:17:49.443Z,2.10
2022-07-27T01:20:15.908Z,1.80
2022-07-27T01:22:42.345Z,1.80
2022-07-27T01:25:10.074Z,1.60
2022-07-27T01:27:36.931Z,1.70
2022-07-27T01:30:24.396Z,2.00
2022-07-27T01:32:50.937Z,2.13
2022-07-27T01:35:17.453Z,1.50
2022-07-27T01:37:48.205Z,1.83
2022-07-27T01:40:15.048Z,2.00
2022-07-27T01:42:41.640Z,1.30
2022-07-27T01:45:09.032Z,2.10
2022-07-27T01:47:35.486Z,2.00
2022-07-27T01:50:02.213Z,1.80
2022-07-27T01:52:28.996Z,1.77
2022-07-27T01:54:55.456Z,2.00
2022-07-27T01:57:21.896Z,2.03
2022-07-27T01:59:48.356Z,2.63
2022-07-27T02:02:16.102Z,2.00
2022-07-27T02:04:43.201Z,2.50
2022-07-27T02:07:09.682Z,2.50
2022-07-27T02:09:36.309Z,3.53
2022-07-27T02:12:21.676Z,2.60
2022-07-27T02:14:48.153Z,1.97
2022-07-27T02:17:14.605Z,1.90
2022-07-27T02:19:41.471Z,2.27
2022-07-27T02:22:08.914Z,2.47
2022-07-27T02:24:37.745Z,3.60
2022-07-27T02:27:04.392Z,4.00
2022-07-27T02:29:30.868Z,4.43
2022-07-27T02:31:57.426Z,3.00
2022-07-27T02:34:23.865Z,2.30
2022-07-27T02:36:50.296Z,2.10
2022-07-27T02:39:16.686Z,1.83
2022-07-27T02:41:44.904Z,1.47
2022-07-27T02:44:11.305Z,1.40
2022-07-27T02:46:37.781Z,1.70
2022-07-27T02:49:04.251Z,1.60
2022-07-27T02:51:30.882Z,1.40
2022-07-27T02:53:57.283Z,1.63
2022-07-27T02:56:26.953Z,1.30
2022-07-27T02:58:53.765Z,2.00
2022-07-27T03:01:20.262Z,1.60
2022-07-27T03:03:47.244Z,1.50
2022-07-27T03:06:13.928Z,1.60
2022-07-27T03:08:40.595Z,1.90
2022-07-27T03:11:08.472Z,2.23
2022-07-27T03:13:34.867Z,1.23
2022-07-27T03:16:01.586Z,1.67
2022-07-27T03:18:28.114Z,1.80
2022-07-27T03:20:54.575Z,1.30
2022-07-27T03:23:21.461Z,1.30
2022-07-27T03:25:48.534Z,1.97
2022-07-27T03:28:14.941Z,1.30
2022-07-27T03:30:41.520Z,1.30
2022-07-27T03:33:07.981Z,1.33
2022-07-27T03:35:34.469Z,1.53
2022-07-27T03:38:00.938Z,1.53
2022-07-27T03:40:29.525Z,1.40
2022-07-27T03:42:56.234Z,1.60
2022-07-27T03:45:22.680Z,1.73
2022-07-27T03:47:49.076Z,1.53
2022-07-27T03:50:15.478Z,1.60
2022-07-27T03:52:45.443Z,1.60
2022-07-27T03:55:12.354Z,1.77
2022-07-27T03:57:38.804Z,2.03
2022-07-27T04:00:05.900Z,1.57
2022-07-27T04:02:32.433Z,1.50
2022-07-27T04:04:58.876Z,1.50
2022-07-27T04:07:25.802Z,1.97
2022-07-27T04:09:52.205Z,1.43
2022-07-27T04:12:19.998Z,1.70
2022-07-27T04:14:46.593Z,1.73
2022-07-27T04:17:13.081Z,1.57
2022-07-27T04:19:59.497Z,1.57
2022-07-27T04:22:25.966Z,2.03
2022-07-27T04:24:52.421Z,2.27
2022-07-27T04:27:18.840Z,2.00
2022-07-27T04:29:45.248Z,1.57
2022-07-27T04:32:11.764Z,1.60
2022-07-27T04:34:38.291Z,1.20
2022-07-27T04:37:05.853Z,1.93
2022-07-27T04:39:32.270Z,1.80
2022-07-27T04:41:58.721Z,1.57
2022-07-27T04:44:25.154Z,1.67
2022-07-27T04:46:51.616Z,1.80
2022-07-27T04:49:18.102Z,1.93
2022-07-27T04:51:45.029Z,1.57
2022-07-27T04:54:12.347Z,1.60
2022-07-27T04:56:38.984Z,1.90
2022-07-27T04:59:05.480Z,2.70
2022-07-27T05:01:35.240Z,1.70
2022-07-27T05:04:04.031Z,1.60
2022-07-27T05:06:32.888Z,1.73
2022-07-27T05:09:00.095Z,1.77
2022-07-27T05:11:26.492Z,2.07
2022-07-27T05:13:52.902Z,2.50
2022-07-27T05:16:19.480Z,1.47
2022-07-27T05:18:46.079Z,1.70
2022-07-27T05:21:12.613Z,2.70
2022-07-27T05:23:39.049Z,2.30
2022-07-27T05:26:05.589Z,2.20
2022-07-27T05:28:32.315Z,2.40
2022-07-27T05:30:59.009Z,2.30
2022-07-27T05:33:25.606Z,1.63
2022-07-27T05:35:52.364Z,2.40
2022-07-27T05:38:18.791Z,1.73
2022-07-27T05:40:46.278Z,1.90
2022-07-27T05:43:12.778Z,1.90
2022-07-27T05:45:39.395Z,1.70
2022-07-27T05:48:06.193Z,1.80
2022-07-27T05:50:32.650Z,1.93
2022-07-27T05:53:00.583Z,1.97
2022-07-27T05:55:27.301Z,2.07
2022-07-27T05:57:53.814Z,2.07
2022-07-27T06:00:20.248Z,1.40
2022-07-27T06:02:46.682Z,2.10
2022-07-27T06:05:15.929Z,2.13
2022-07-27T06:07:59.581Z,2.53
2022-07-27T06:10:32.269Z,1.70
2022-07-27T06:12:59.710Z,1.97
2022-07-27T06:15:26.301Z,2.10
2022-07-27T06:17:54.039Z,1.80
2022-07-27T06:20:21.522Z,1.87
2022-07-27T06:22:54.591Z,2.60
2022-07-27T06:25:22.175Z,2.40
2022-07-27T06:27:49.073Z,2.00
2022-07-27T06:30:18.264Z,1.77
2022-07-27T06:32:46.376Z,1.60
2022-07-27T06:35:14.018Z,2.23
2022-07-27T06:37:44.071Z,1.97
2022-07-27T06:40:14.391Z,1.50
2022-07-27T06:42:41.542Z,2.03
2022-07-27T06:45:09.528Z,1.60
2022-07-27T06:47:36.769Z,2.07
2022-07-27T06:50:17.578Z,1.60
2022-07-27T06:52:44.230Z,1.90
2022-07-27T06:55:10.665Z,2.57
2022-07-27T06:57:37.064Z,1.80
2022-07-27T07:00:04.894Z,1.87
2022-07-27T07:02:31.295Z,1.77
2022-07-27T07:04:57.770Z,2.00
2022-07-27T07:07:24.244Z,1.90
2022-07-27T07:09:51.344Z,2.10
2022-07-27T07:12:18.358Z,1.90
2022-07-27T07:14:45.516Z,2.17
2022-07-27T07:17:12.148Z,2.10
2022-07-27T07:19:38.691Z,1.60
2022-07-27T07:22:06.356Z,2.60
2022-07-27T07:24:32.857Z,1.87
2022-07-27T07:26:59.302Z,1.97
2022-07-27T07:29:25.727Z,2.47
2022-07-27T07:31:52.234Z,1.90
2022-07-27T07:34:18.715Z,2.50
2022-07-27T07:36:46.300Z,2.50
2022-07-27T07:39:13.103Z,2.30
2022-07-27T07:41:39.769Z,2.30
2022-07-27T07:44:06.660Z,1.53
2022-07-27T07:46:33.198Z,1.90
2022-07-27T07:48:59.745Z,2.03
2022-07-27T07:51:26.224Z,2.03
2022-07-27T07:53:52.677Z,1.50
2022-07-27T07:56:19.116Z,1.40
2022-07-27T07:58:45.611Z,1.87
2022-07-27T08:01:12.314Z,1.60
2022-07-27T08:03:38.750Z,1.90
2022-07-27T08:06:06.440Z,1.77
2022-07-27T08:08:33.059Z,1.47
2022-07-27T08:10:59.491Z,1.40
2022-07-27T08:13:25.953Z,2.40
2022-07-27T08:15:52.999Z,1.27
2022-07-27T08:18:19.894Z,1.60
2022-07-27T08:20:46.757Z,1.60
2022-07-27T08:23:13.276Z,1.40
2022-07-27T08:25:39.800Z,1.70
2022-07-27T08:28:06.417Z,1.70
2022-07-27T08:30:34.466Z,1.40
2022-07-27T08:33:03.489Z,2.57
2022-07-27T08:35:32.158Z,5.20
2022-07-27T08:37:59.190Z,2.13
2022-07-27T08:40:44.080Z,1.83
2022-07-27T08:43:12.111Z,1.40
2022-07-27T08:45:41.326Z,1.20
2022-07-27T08:48:12.809Z,1.30
2022-07-27T08:50:40.467Z,1.10
2022-07-27T08:53:09.339Z,1.00
2022-07-27T08:55:38.955Z,1.10
2022-07-27T08:58:06.538Z,1.00
2022-07-27T09:00:34.568Z,1.10
2022-07-27T09:03:01.383Z,1.27
2022-07-27T09:05:37.567Z,1.00
2022-07-27T09:08:28.813Z,0.87
2022-07-27T09:10:59.156Z,1.43
2022-07-27T09:13:34.395Z,0.93
2022-07-27T09:16:19.222Z,1.50
2022-07-27T09:18:47.135Z,1.00
2022-07-27T09:21:20.046Z,1.10
2022-07-27T09:23:50.335Z,0.80
2022-07-27T09:26:31.154Z,0.90
2022-07-27T09:29:03.845Z,0.87
2022-07-27T09:31:31.409Z,1.33
2022-07-27T09:34:01.598Z,0.73
2022-07-27T09:36:30.006Z,1.57
2022-07-27T09:39:07.977Z,1.20
2022-07-27T09:41:46.696Z,0.90
2022-07-27T09:44:32.185Z,1.00
2022-07-27T09:46:59.987Z,0.70
2022-07-27T09:49:28.956Z,0.80
2022-07-27T09:51:59.912Z,1.20
2022-07-27T09:54:27.334Z,1.07
2022-07-27T09:57:01.801Z,1.10
2022-07-27T09:59:29.901Z,0.80
2022-07-27T10:01:57.240Z,0.93
2022-07-27T10:04:24.984Z,1.13
2022-07-27T10:07:02.727Z,1.30
2022-07-27T10:09:31.043Z,0.90
2022-07-27T10:11:58.352Z,1.10
2022-07-27T10:14:25.617Z,1.00
2022-07-27T10:16:53.187Z,1.00
2022-07-27T10:19:41.862Z,2.40
2022-07-27T10:22:08.422Z,1.33
2022-07-27T10:24:37.171Z,3.90
2022-07-27T10:27:29.307Z,2.20
2022-07-27T10:29:57.470Z,1.20
2022-07-27T10:32:31.717Z,1.60
2022-07-27T10:34:59.764Z,4.20
2022-07-27T10:37:34.160Z,2.40
2022-07-27T10:40:26.941Z,2.30
2022-07-27T10:43:19.979Z,1.53
2022-07-27T10:46:01.846Z,1.57
2022-07-27T10:48:46.053Z,1.30
2022-07-27T10:51:16.564Z,3.13
2022-07-27T10:54:11.033Z,1.40
2022-07-27T10:56:47.965Z,1.10
2022-07-27T10:59:15.028Z,0.90
2022-07-27T11:01:57.279Z,1.10
2022-07-27T11:04:24.452Z,1.43
2022-07-27T11:07:23.611Z,1.00
2022-07-27T11:12:30.529Z,1.27
2022-07-27T11:14:58.631Z,0.83
2022-07-27T11:17:54.745Z,1.20
2022-07-27T11:20:22.673Z,1.43
2022-07-27T11:25:35.682Z,1.20
2022-07-27T11:28:07.481Z,0.90
2022-07-27T11:30:34.078Z,0.80
2022-07-27T11:33:04.463Z,0.90
2022-07-27T11:35:30.941Z,0.90
2022-07-27T11:38:03.638Z,0.90
2022-07-27T11:40:59.924Z,1.10
2022-07-27T11:43:37.690Z,1.13
2022-07-27T11:46:25.758Z,1.00
2022-07-27T11:49:09.480Z,0.87
2022-07-27T11:51:50.101Z,0.83
2022-07-27T11:54:34.803Z,0.87
2022-07-27T11:57:04.482Z,0.90
2022-07-27T11:59:32.656Z,1.03
2022-07-27T12:02:10.477Z,1.10
2022-07-27T12:04:39.672Z,1.00
2022-07-27T12:07:07.959Z,0.90
2022-07-27T12:09:39.084Z,1.07
2022-07-27T12:12:12.101Z,1.20
2022-07-27T12:14:45.745Z,1.10
2022-07-27T12:17:20.393Z,0.97
2022-07-27T12:20:00.549Z,1.20
2022-07-27T12:22:29.608Z,0.90
2022-07-27T12:24:57.827Z,0.97
2022-07-27T12:27:26.196Z,1.00
2022-07-27T12:30:09.260Z,0.97
2022-07-27T12:32:45.119Z,0.80
2022-07-27T12:35:24.308Z,0.93
2022-07-27T12:38:10.989Z,1.30
2022-07-27T12:40:46.502Z,1.33
2022-07-27T12:43:17.287Z,1.13
2022-07-27T12:45:44.188Z,0.90
2022-07-27T12:48:18.880Z,0.80
2022-07-27T12:50:48.078Z,1.23
2022-07-27T12:53:16.630Z,1.77
2022-07-27T12:55:44.012Z,1.20
2022-07-27T12:58:13.974Z,1.10
2022-07-27T13:00:41.243Z,0.90
2022-07-27T13:03:08.194Z,1.03
2022-07-27T13:05:36.701Z,1.30
2022-07-27T13:08:04.756Z,1.30
2022-07-27T13:10:31.691Z,1.10
2022-07-27T13:12:59.068Z,1.10
2022-07-27T13:15:25.772Z,1.17
2022-07-27T13:17:52.631Z,1.43
2022-07-27T13:20:19.270Z,0.93
2022-07-27T13:22:46.765Z,1.20
2022-07-27T13:25:15.957Z,0.90
2022-07-27T13:27:44.465Z,1.00
2022-07-27T13:30:11.949Z,0.87
2022-07-27T13:32:39.174Z,1.10
2022-07-27T13:35:07.533Z,0.93
2022-07-27T13:37:34.067Z,1.10
2022-07-27T13:40:00.721Z,0.90
2022-07-27T13:42:27.141Z,1.00
2022-07-27T13:45:10.849Z,0.90
2022-07-27T13:47:39.641Z,1.27
2022-07-27T13:50:15.183Z,1.43
2022-07-27T13:52:44.469Z,1.10
2022-07-27T13:55:10.961Z,1.30
2022-07-27T13:57:37.433Z,1.00
2022-07-27T14:00:04.614Z,1.20
2022-07-27T14:02:31.270Z,1.20
2022-07-27T14:04:58.509Z,1.20
2022-07-27T14:07:28.242Z,1.10
2022-07-27T14:10:24.617Z,1.30
2022-07-27T14:12:54.282Z,1.33
2022-07-27T14:15:24.965Z,1.10
2022-07-27T14:17:51.361Z,1.30
2022-07-27T14:20:18.232Z,1.40
2022-07-27T14:22:44.676Z,0.90
2022-07-27T14:25:11.225Z,1.50
2022-07-27T14:27:37.983Z,1.23
2022-07-27T14:30:06.751Z,1.60
2022-07-27T14:32:33.701Z,1.53
2022-07-27T14:35:00.353Z,1.13
2022-07-27T14:37:26.760Z,1.10
2022-07-27T14:39:53.242Z,1.30
2022-07-27T14:42:22.127Z,1.20
2022-07-27T14:44:48.514Z,1.63
2022-07-27T14:47:14.976Z,1.60
2022-07-27T14:49:41.442Z,1.40
2022-07-27T14:52:13.253Z,1.30
2022-07-27T14:54:44.704Z,1.20
2022-07-27T14:57:11.413Z,1.10
2022-07-27T14:59:38.628Z,1.20
2022-07-27T15:02:05.770Z,1.80
2022-07-27T15:04:33.136Z,1.13
2022-07-27T15:07:00.040Z,1.10
2022-07-27T15:09:30.198Z,1.10
2022-07-27T15:11:59.272Z,1.20
2022-07-27T15:14:26.419Z,1.17
2022-07-27T15:16:53.920Z,1.20
2022-07-27T15:19:20.393Z,1.23
2022-07-27T15:21:47.267Z,1.33
2022-07-27T15:24:14.136Z,1.70
2022-07-27T15:26:40.845Z,1.30
2022-07-27T15:29:07.513Z,1.30
2022-07-27T15:31:33.972Z,1.30
2022-07-27T15:34:01.578Z,1.50
2022-07-27T15:36:33.371Z,1.77
2022-07-27T15:39:01.069Z,1.30
2022-07-27T15:41:27.640Z,1.30
2022-07-27T15:43:55.304Z,1.67
2022-07-27T15:46:27.293Z,1.30
2022-07-27T15:48:54.944Z,1.60
2022-07-27T15:51:21.460Z,1.40
2022-07-27T15:53:47.975Z,1.87
2022-07-27T15:56:14.342Z,2.77
2022-07-27T15:58:40.819Z,1.57
2022-07-27T16:01:08.470Z,1.77
2022-07-27T16:03:38.558Z,1.40
2022-07-27T16:06:05.075Z,2.00
2022-07-27T16:08:31.628Z,1.40
2022-07-27T16:10:58.813Z,1.60
2022-07-27T16:13:25.793Z,2.27
2022-07-27T16:16:22.043Z,1.97
2022-07-27T16:18:49.340Z,1.80
2022-07-27T16:21:15.818Z,1.33
2022-07-27T16:23:42.281Z,1.00
2022-07-27T16:26:08.828Z,1.20
2022-07-27T16:28:43.173Z,1.63
2022-07-27T16:31:11.425Z,1.00
2022-07-27T16:33:38.322Z,1.53
2022-07-27T16:36:05.773Z,1.77
2022-07-27T16:38:32.232Z,1.00
2022-07-27T16:40:58.719Z,1.10
2022-07-27T16:43:37.961Z,1.10
2022-07-27T16:46:09.942Z,1.10
2022-07-27T16:48:42.645Z,1.33
2022-07-27T16:51:13.760Z,1.23
2022-07-27T16:53:42.421Z,1.30
2022-07-27T16:56:09.273Z,1.40
2022-07-27T16:58:36.458Z,1.27
2022-07-27T17:01:03.277Z,1.40
2022-07-27T17:03:29.887Z,2.93
2022-07-27T17:05:56.435Z,1.80
2022-07-27T17:08:28.002Z,1.80
2022-07-27T17:10:55.319Z,1.50
2022-07-27T17:13:21.915Z,1.73
2022-07-27T17:15:48.448Z,1.37
2022-07-27T17:18:16.041Z,1.27
2022-07-27T17:20:42.480Z,1.10
2022-07-27T17:23:10.120Z,1.60
2022-07-27T17:25:36.928Z,1.50
2022-07-27T17:28:03.632Z,3.80
2022-07-27T17:30:32.912Z,2.20
2022-07-27T17:33:02.920Z,1.47
2022-07-27T17:35:29.432Z,1.63
2022-07-27T17:38:06.256Z,1.77
2022-07-27T17:40:34.168Z,1.40
2022-07-27T17:43:00.721Z,1.17
2022-07-27T17:45:27.353Z,1.40
2022-07-27T17:47:53.882Z,1.30
2022-07-27T17:50:20.423Z,1.47
2022-07-27T17:52:46.890Z,1.57
2022-07-27T17:55:13.390Z,1.20
2022-07-27T17:57:39.828Z,1.40
2022-07-27T18:00:07.539Z,1.30
2022-07-27T18:02:36.415Z,1.63
2022-07-27T18:05:02.846Z,1.50
2022-07-27T18:07:29.253Z,1.07
2022-07-27T18:10:06.040Z,1.63
2022-07-27T18:12:34.410Z,1.10
2022-07-27T18:15:19.450Z,1.43
2022-07-27T18:17:45.832Z,1.87
2022-07-27T18:20:12.472Z,1.70
2022-07-27T18:22:39.054Z,1.80
2022-07-27T18:25:07.369Z,1.30
2022-07-27T18:27:35.350Z,1.70
2022-07-27T18:30:03.717Z,1.67
2022-07-27T18:32:30.203Z,1.37
2022-07-27T18:34:56.652Z,1.43
2022-07-27T18:37:23.068Z,1.33
2022-07-27T18:39:49.766Z,1.30
2022-07-27T18:42:16.236Z,1.60
2022-07-27T18:44:42.742Z,1.60
2022-07-27T18:47:09.165Z,1.63
2022-07-27T18:49:35.776Z,1.47
2022-07-27T18:52:02.312Z,1.53
2022-07-27T18:54:29.586Z,1.23
2022-07-27T18:56:56.223Z,1.40
2022-07-27T18:59:23.275Z,1.50
2022-07-27T19:01:49.824Z,1.80
2022-07-27T19:04:16.671Z,1.17
2022-07-27T19:06:44.563Z,1.23
2022-07-27T19:09:13.152Z,1.83
2022-07-27T19:11:39.794Z,1.50
2022-07-27T19:14:06.306Z,1.30
2022-07-27T19:16:34.298Z,1.50
2022-07-27T19:19:00.926Z,1.60
2022-07-27T19:21:27.871Z,1.40
2022-07-27T19:23:54.932Z,1.60
2022-07-27T19:26:21.373Z,1.13
2022-07-27T19:28:47.881Z,1.37
2022-07-27T19:31:22.606Z,1.27
2022-07-27T19:33:50.999Z,1.50
2022-07-27T19:36:17.727Z,1.43
2022-07-27T19:38:44.371Z,1.27
2022-07-27T19:41:10.820Z,1.30
2022-07-27T19:43:37.244Z,1.30
2022-07-27T19:46:03.767Z,1.67
2022-07-27T19:48:30.309Z,1.40
2022-07-27T19:51:00.862Z,1.40
2022-07-27T19:53:30.714Z,1.33
2022-07-27T19:55:58.171Z,1.40
2022-07-27T19:58:24.855Z,1.57
2022-07-27T20:00:51.590Z,1.30
2022-07-27T20:03:19.272Z,1.50
2022-07-27T20:05:47.016Z,1.13
2022-07-27T20:08:13.908Z,1.30
2022-07-27T20:10:42.505Z,1.20
2022-07-27T20:13:09.698Z,1.07
2022-07-27T20:15:36.739Z,1.27
2022-07-27T20:18:04.009Z,1.23
2022-07-27T20:20:30.957Z,1.63
2022-07-27T20:22:58.411Z,1.40
2022-07-27T20:25:25.775Z,1.83
2022-07-27T20:27:52.300Z,1.50
2022-07-27T20:30:19.923Z,1.30
2022-07-27T20:32:48.289Z,1.57
2022-07-27T20:35:15.378Z,1.33
2022-07-27T20:37:42.781Z,1.60
2022-07-27T20:40:11.656Z,1.57
2022-07-27T20:42:42.709Z,1.90
2022-07-27T20:45:11.301Z,1.33
2022-07-27T20:47:40.909Z,1.20
2022-07-27T20:50:09.251Z,1.90
2022-07-27T20:52:36.152Z,1.80
2022-07-27T20:55:02.610Z,1.80
2022-07-27T20:57:29.083Z,1.50
2022-07-27T20:59:55.508Z,1.40
2022-07-27T21:02:22.091Z,1.70
2022-07-27T21:04:48.634Z,1.60
2022-07-27T21:07:15.633Z,1.47
2022-07-27T21:09:42.056Z,1.70
2022-07-27T21:12:08.605Z,1.50
2022-07-27T21:14:34.992Z,1.30
2022-07-27T21:17:01.566Z,1.40
2022-07-27T21:19:28.088Z,1.67
2022-07-27T21:21:54.519Z,1.30
2022-07-27T21:24:22.766Z,1.60
2022-07-27T21:26:51.449Z,1.20
2022-07-27T21:29:19.554Z,1.10
2022-07-27T21:31:49.065Z,1.53
2022-07-27T21:34:18.000Z,1.50
2022-07-27T21:36:45.543Z,1.20
2022-07-27T21:39:12.259Z,1.43
2022-07-27T21:41:39.307Z,1.20
2022-07-27T21:44:05.849Z,1.73
2022-07-27T21:46:32.335Z,1.20
2022-07-27T21:48:58.916Z,1.20
2022-07-27T21:51:25.480Z,1.23
2022-07-27T21:53:52.065Z,1.30
2022-07-27T21:56:19.039Z,1.40
2022-07-27T21:58:45.884Z,1.13
2022-07-27T22:01:13.292Z,1.10
2022-07-27T22:03:41.194Z,1.20
2022-07-27T22:06:09.589Z,1.57
2022-07-27T22:08:36.292Z,1.40
2022-07-27T22:11:03.059Z,1.50
2022-07-27T22:13:29.716Z,1.40
2022-07-27T22:15:56.280Z,1.00
2022-07-27T22:18:22.747Z,1.20
2022-07-27T22:20:49.270Z,1.40
2022-07-27T22:23:16.231Z,1.50
2022-07-27T22:25:43.180Z,1.50
2022-07-27T22:28:09.764Z,1.43
2022-07-27T22:30:36.284Z,1.67
2022-07-27T22:33:02.733Z,1.40
2022-07-27T22:35:29.262Z,1.50
2022-07-27T22:37:55.663Z,1.20
2022-07-27T22:40:22.389Z,1.20
2022-07-27T22:42:48.804Z,1.20
2022-07-27T22:45:15.320Z,1.47
2022-07-27T22:47:42.552Z,1.50
2022-07-27T22:50:17.937Z,1.20
2022-07-27T22:52:44.954Z,1.37
2022-07-27T22:55:11.352Z,1.50
2022-07-27T22:57:37.873Z,1.30
2022-07-27T23:00:06.044Z,1.27
2022-07-27T23:02:32.569Z,1.50
2022-07-27T23:04:59.104Z,1.30
2022-07-27T23:07:25.642Z,1.20
2022-07-27T23:09:52.162Z,1.83
2022-07-27T23:12:18.618Z,1.50
2022-07-27T23:14:49.088Z,1.30
2022-07-27T23:17:15.859Z,1.47
2022-07-27T23:19:42.660Z,1.20
2022-07-27T23:22:10.977Z,1.53
2022-07-27T23:24:38.186Z,1.23
2022-07-27T23:27:07.544Z,1.50
2022-07-27T23:29:34.007Z,1.20
2022-07-27T23:32:00.606Z,1.10
2022-07-27T23:34:29.060Z,1.30
2022-07-27T23:36:55.784Z,1.10
2022-07-27T23:39:22.216Z,1.83
2022-07-27T23:41:50.182Z,1.30
2022-07-27T23:44:17.489Z,1.27
2022-07-27T23:46:44.145Z,1.10
2022-07-27T23:49:10.835Z,1.30
2022-07-27T23:51:37.382Z,1.13
2022-07-27T23:54:03.890Z,1.53
2022-07-27T23:56:30.330Z,1.33
2022-07-27T23:58:56.768Z,1.43
